Time;durP1;ratioP1;P1;durP2;ratioP2;P2;SDS_P1;SDS_P2;PMS_P1;PMS_P2;Temp;Humidity;BMP_temperature;BMP_pressure;BME280_temperature;BME280_humidity;BME280_pressure;Samples;Min_cycle;Max_cycle;Signal;HPM_P1;HPM_P2
2022/09/09 00:01:27;;;;;;;8.93;5.80;;;;;;;20.00;54.18;97685.06;10414233;28;20479;-56
2022/09/09 00:06:46;;;;;;;7.88;5.55;;;;;;;20.22;52.44;97673.66;10414242;28;20064;-56
2022/09/09 00:11:55;;;;;;;6.88;5.57;;;;;;;20.49;51.46;97684.84;10413864;28;20534;-55
2022/09/09 00:17:01;;;;;;;7.95;5.78;;;;;;;20.65;50.26;97670.06;10413259;28;20076;-57
2022/09/09 00:22:13;;;;;;;7.57;5.50;;;;;;;20.79;49.96;97669.47;10416604;28;20079;-56
2022/09/09 00:27:47;;;;;;;7.03;5.15;;;;;;;20.87;49.14;97669.16;10421713;28;20083;-56
2022/09/09 00:32:49;;;;;;;7.70;5.65;;;;;;;20.92;48.72;97662.75;10422110;28;20064;-56
2022/09/09 00:37:51;;;;;;;11.52;5.53;;;;;;;20.98;48.31;97658.97;10420810;28;20067;-56
2022/09/09 00:43:02;;;;;;;8.73;5.53;;;;;;;20.99;48.01;97646.66;10422326;28;20083;-56
2022/09/09 00:48:11;;;;;;;12.93;5.60;;;;;;;21.02;47.81;97642.09;10420386;28;21189;-56
2022/09/09 00:53:29;;;;;;;6.13;5.40;;;;;;;21.04;47.69;97634.97;10420540;28;20106;-56
2022/09/09 00:58:28;;;;;;;8.53;7.63;;;;;;;20.96;50.31;97647.66;10420459;28;20075;-56
2022/09/09 01:03:53;;;;;;;8.30;7.43;;;;;;;20.65;52.45;97642.84;10421062;28;20036;-56
2022/09/09 01:08:58;;;;;;;10.57;8.13;;;;;;;20.20;54.05;97647.34;10419466;28;20122;-56
2022/09/09 01:14:34;;;;;;;9.95;7.68;;;;;;;19.83;55.81;97664.66;10419868;28;20075;-56
2022/09/09 01:20:08;;;;;;;10.95;7.72;;;;;;;19.55;56.80;97648.19;10421195;28;20063;-55
2022/09/09 01:25:16;;;;;;;11.88;8.05;;;;;;;19.36;57.50;97646.25;10420088;28;20071;-56
2022/09/09 01:30:17;;;;;;;9.65;7.50;;;;;;;19.15;58.29;97639.19;10419556;28;20071;-56
2022/09/09 01:35:35;;;;;;;10.73;8.55;;;;;;;19.00;58.85;97630.97;10420063;28;20067;-56
2022/09/09 01:40:34;;;;;;;9.30;7.95;;;;;;;18.75;59.89;97624.88;10419694;28;20514;-56
2022/09/09 01:45:34;;;;;;;8.90;7.80;;;;;;;18.68;59.78;97623.34;10419270;28;20078;-56
2022/09/09 01:50:33;;;;;;;9.05;8.00;;;;;;;18.65;60.41;97634.84;10418879;28;20084;-56
2022/09/09 01:55:41;;;;;;;11.77;8.43;;;;;;;18.50;61.26;97649.38;10419681;28;20150;-56
2022/09/09 02:00:48;;;;;;;9.48;7.78;;;;;;;18.42;60.59;97648.75;10418166;28;20071;-56
2022/09/09 02:06:20;;;;;;;8.55;6.93;;;;;;;18.45;59.39;97632.03;10418283;28;20542;-55
2022/09/09 02:11:22;;;;;;;8.88;5.50;;;;;;;18.64;55.43;97616.47;10393244;28;20503;-56
2022/09/09 02:16:40;;;;;;;6.03;4.88;;;;;;;19.15;53.41;97633.94;10417791;28;20079;-56
2022/09/09 02:21:43;;;;;;;6.93;5.10;;;;;;;19.57;51.35;97636.72;10417351;28;20072;-56
2022/09/09 02:26:46;;;;;;;7.32;6.63;;;;;;;19.70;52.21;97647.63;10418652;28;20068;-56
2022/09/09 02:31:48;;;;;;;8.60;6.55;;;;;;;19.70;53.10;97641.50;10416548;28;20078;-56
2022/09/09 02:36:49;;;;;;;10.35;7.43;;;;;;;19.43;54.57;97649.53;10415543;28;20072;-56
2022/09/09 02:41:48;;;;;;;11.38;7.70;;;;;;;19.13;56.17;97664.69;10417741;28;20052;-56
2022/09/09 02:47:10;;;;;;;9.77;7.20;;;;;;;19.03;56.47;97661.53;10416291;28;20076;-56
2022/09/09 02:52:17;;;;;;;11.98;6.55;;;;;;;18.96;55.46;97644.28;10416042;28;20084;-56
2022/09/09 02:57:23;;;;;;;8.15;4.82;;;;;;;19.14;53.13;97632.22;10416107;28;20072;-56
2022/09/09 03:02:22;;;;;;;6.43;4.90;;;;;;;19.39;51.64;97625.13;10417012;28;20064;-56
2022/09/09 03:07:21;;;;;;;9.40;5.50;;;;;;;19.61;51.08;97648.84;10415688;28;20039;-56
2022/09/09 03:12:20;;;;;;;8.48;5.65;;;;;;;19.73;50.82;97629.06;10415922;28;20063;-56
2022/09/09 03:17:19;;;;;;;6.05;5.10;;;;;;;19.78;50.51;97637.66;10415997;28;20024;-56
2022/09/09 03:22:18;;;;;;;7.72;5.40;;;;;;;19.85;50.19;97633.84;10415300;28;20460;-56
2022/09/09 03:27:19;;;;;;;9.52;4.88;;;;;;;19.91;50.07;97639.78;10415448;28;20463;-56
2022/09/09 03:32:19;;;;;;;10.93;5.53;;;;;;;19.97;49.70;97639.53;10414709;28;20075;-56
2022/09/09 03:37:19;;;;;;;6.28;5.03;;;;;;;20.02;49.66;97650.75;10415237;28;20094;-56
2022/09/09 03:42:18;;;;;;;9.75;5.43;;;;;;;20.03;49.41;97650.69;10414193;28;20072;-56
2022/09/09 03:47:18;;;;;;;7.90;5.47;;;;;;;20.00;50.05;97647.31;10415276;28;20036;-56
2022/09/09 03:52:18;;;;;;;10.02;5.95;;;;;;;19.89;50.38;97663.56;10414505;28;20087;-56
2022/09/09 03:57:17;;;;;;;6.45;5.45;;;;;;;19.80;50.73;97670.03;10412910;28;20129;-56
2022/09/09 04:02:16;;;;;;;10.43;6.00;;;;;;;19.74;51.03;97665.00;10414772;28;20463;-56
2022/09/09 04:07:15;;;;;;;8.50;5.75;;;;;;;19.70;50.80;97676.59;10395263;28;20552;-56
2022/09/09 04:12:14;;;;;;;11.98;6.20;;;;;;;19.55;51.77;97658.72;10413738;28;20083;-56
2022/09/09 04:17:13;;;;;;;19.67;8.15;;;;;;;19.48;53.46;97675.66;10414307;28;20032;-56
2022/09/09 04:22:12;;;;;;;12.80;8.95;;;;;;;19.16;55.63;97678.59;10412882;28;20091;-56
2022/09/09 04:27:12;;;;;;;12.20;8.77;;;;;;;18.87;58.04;97671.75;10413890;28;20056;-56
2022/09/09 04:32:11;;;;;;;14.55;8.60;;;;;;;18.77;58.13;97680.88;10413409;28;20079;-56
2022/09/09 04:37:10;;;;;;;9.23;8.00;;;;;;;18.60;60.03;97682.28;10413314;28;20087;-56
2022/09/09 04:42:09;;;;;;;10.13;8.02;;;;;;;18.58;60.57;97681.50;10413713;28;20112;-56
2022/09/09 04:47:08;;;;;;;12.15;9.18;;;;;;;18.54;61.47;97676.38;10413868;28;20108;-56
2022/09/09 04:52:07;;;;;;;14.05;9.63;;;;;;;18.54;61.88;97679.00;10412766;28;20051;-56
2022/09/09 04:57:06;;;;;;;11.75;9.25;;;;;;;18.66;61.91;97662.81;10404254;28;20127;-56
2022/09/09 05:02:05;;;;;;;12.80;8.15;;;;;;;18.73;61.08;97652.97;10374108;28;20076;-56
2022/09/09 05:07:04;;;;;;;12.23;6.38;;;;;;;18.90;59.50;97650.63;10392649;28;20067;-56
2022/09/09 05:12:04;;;;;;;9.90;6.38;;;;;;;19.19;59.15;97659.22;10419709;28;20348;-56
2022/09/09 05:17:03;;;;;;;13.07;7.70;;;;;;;19.38;58.62;97659.38;10420913;28;20068;-56
2022/09/09 05:22:04;;;;;;;11.57;8.60;;;;;;;19.54;60.41;97649.97;10419857;28;20072;-56
2022/09/09 05:27:04;;;;;;;13.38;8.70;;;;;;;19.70;59.39;97650.28;10419146;28;20075;-56
2022/09/09 05:32:04;;;;;;;18.05;8.20;;;;;;;19.83;58.33;97654.09;10417971;28;20064;-56
2022/09/09 05:37:04;;;;;;;11.75;7.20;;;;;;;20.01;58.19;97644.63;10415988;28;20093;-56
2022/09/09 05:42:04;;;;;;;7.95;6.78;;;;;;;20.12;58.23;97644.19;10418081;28;20072;-56
2022/09/09 05:47:03;;;;;;;12.95;7.93;;;;;;;20.35;58.86;97637.09;10419413;28;20122;-56
2022/09/09 05:52:03;;;;;;;13.50;8.50;;;;;;;20.51;61.42;97632.91;10419049;28;20075;-57
2022/09/09 05:57:03;;;;;;;9.38;8.13;;;;;;;20.69;60.45;97640.03;10419494;28;20083;-56
2022/09/09 06:02:02;;;;;;;11.57;8.57;;;;;;;20.86;59.30;97647.19;10418520;28;20078;-56
2022/09/09 06:07:01;;;;;;;13.27;9.00;;;;;;;21.00;56.84;97654.50;10418024;28;20530;-56
2022/09/09 06:12:00;;;;;;;12.68;9.88;;;;;;;21.20;56.66;97655.41;10416498;28;20514;-56
2022/09/09 06:16:59;;;;;;;10.73;8.10;;;;;;;21.40;56.43;97657.13;10415614;28;20080;-56
2022/09/09 06:21:58;;;;;;;11.20;7.50;;;;;;;21.52;55.41;97638.94;10412489;28;20036;-56
2022/09/09 06:26:57;;;;;;;8.05;5.45;;;;;;;21.76;51.97;97651.94;10415078;28;20080;-56
2022/09/09 06:31:57;;;;;;;6.85;4.70;;;;;;;22.11;48.34;97644.94;10415720;28;20596;-56
2022/09/09 06:36:59;;;;;;;10.02;4.97;;;;;;;22.59;48.14;97635.47;10417248;28;20072;-57
2022/09/09 06:41:58;;;;;;;7.57;5.50;;;;;;;22.91;48.33;97643.56;10416898;28;20071;-56
2022/09/09 06:46:57;;;;;;;7.97;4.78;;;;;;;23.16;46.25;97639.59;10416835;28;20051;-56
2022/09/09 06:51:56;;;;;;;6.80;4.40;;;;;;;23.63;44.99;97634.38;10416988;28;20076;-56
2022/09/09 06:56:55;;;;;;;10.52;4.38;;;;;;;23.97;43.39;97629.81;10417062;28;20039;-56
2022/09/09 07:01:54;;;;;;;7.25;4.75;;;;;;;24.24;42.64;97637.16;10417328;28;20064;-56
2022/09/09 07:06:53;;;;;;;6.78;4.55;;;;;;;24.44;42.87;97643.94;10417255;28;20462;-56
2022/09/09 07:11:52;;;;;;;5.75;4.50;;;;;;;24.67;42.24;97654.03;10417061;28;20542;-56
2022/09/09 07:16:51;;;;;;;11.00;7.10;;;;;;;24.78;42.13;97642.78;10417758;28;20713;-56
2022/09/09 07:21:50;;;;;;;16.23;5.85;;;;;;;24.98;42.34;97652.22;10417492;28;20542;-57
2022/09/09 07:26:49;;;;;;;12.00;5.00;;;;;;;25.25;41.21;97654.97;10415993;28;20385;-56
2022/09/09 07:31:48;;;;;;;7.03;4.75;;;;;;;25.48;41.14;97645.56;10393286;28;20021;-57
2022/09/09 07:36:48;;;;;;;9.25;4.82;;;;;;;25.68;40.42;97654.09;10383350;28;20108;-54
2022/09/09 07:41:49;;;;;;;10.10;5.30;;;;;;;25.90;40.71;97630.50;10402787;28;20074;-54
2022/09/09 07:46:48;;;;;;;7.60;4.80;;;;;;;26.19;40.80;97635.72;10415717;28;20078;-55
2022/09/09 07:51:49;;;;;;;8.18;5.07;;;;;;;26.49;40.57;97622.19;10415951;28;20076;-55
2022/09/09 07:56:49;;;;;;;12.00;5.43;;;;;;;26.71;40.21;97618.91;10416091;28;20071;-55
2022/09/09 08:01:54;;;;;;;7.88;5.28;;;;;;;26.90;39.63;97620.31;10416566;28;20071;-55
2022/09/09 08:06:59;;;;;;;12.88;5.07;;;;;;;26.96;38.53;97626.06;10415358;28;20096;-55
2022/09/09 08:11:58;;;;;;;8.20;5.50;;;;;;;26.95;38.89;97627.00;10405248;28;20079;-55
2022/09/09 08:16:57;;;;;;;11.23;5.95;;;;;;;26.99;38.30;97625.84;10414126;28;20511;-55
2022/09/09 08:21:56;;;;;;;11.27;7.32;;;;;;;26.98;38.58;97634.81;10410556;28;20134;-55
2022/09/09 08:26:56;;;;;;;14.10;5.80;;;;;;;27.06;37.80;97636.94;10410064;28;20473;-55
2022/09/09 08:31:59;;;;;;;7.20;5.07;;;;;;;27.22;37.88;97639.38;10409886;28;20102;-55
2022/09/09 08:36:58;;;;;;;9.63;5.63;;;;;;;27.38;37.86;97648.00;10411976;28;20068;-55
2022/09/09 08:42:17;;;;;;;10.85;5.05;;;;;;;27.65;37.81;97636.31;10414616;28;20033;-55
2022/09/09 08:47:38;;;;;;;8.48;4.68;;;;;;;27.83;37.23;97648.31;10419988;28;20079;-55
2022/09/09 08:52:56;;;;;;;10.10;4.97;;;;;;;28.01;36.88;97653.28;10340409;28;20528;-55
2022/09/09 08:57:57;;;;;;;8.83;4.97;;;;;;;28.14;36.50;97646.09;10339338;28;20465;-55
2022/09/09 09:03:22;;;;;;;8.20;4.65;;;;;;;28.35;36.30;97632.97;10339520;28;20068;-55
2022/09/09 09:08:28;;;;;;;8.40;5.03;;;;;;;28.57;36.31;97624.19;10338951;28;20517;-55
2022/09/09 09:13:43;;;;;;;18.52;7.45;;;;;;;28.78;36.30;97629.72;10339578;28;20106;-55
2022/09/09 09:18:42;;;;;;;12.40;5.57;;;;;;;28.98;36.26;97614.81;10337869;28;20033;-55
2022/09/09 09:23:48;;;;;;;16.45;5.85;;;;;;;29.12;35.71;97615.53;10338206;28;20064;-55
2022/09/09 09:28:47;;;;;;;11.65;5.72;;;;;;;29.16;36.03;97612.50;10349014;28;20068;-55
2022/09/09 09:33:50;;;;;;;7.55;5.13;;;;;;;29.20;35.45;97603.25;10341274;28;20037;-55
2022/09/09 09:38:59;;;;;;;9.20;5.00;;;;;;;29.19;35.69;97604.25;10338424;28;20519;-55
2022/09/09 09:44:00;;;;;;;10.63;4.85;;;;;;;29.38;35.44;97600.97;10338184;28;20069;-55
2022/09/09 09:49:05;;;;;;;8.13;4.78;;;;;;;29.72;34.97;97603.63;10360784;28;20550;-55
2022/09/09 09:54:28;;;;;;;7.78;5.35;;;;;;;29.94;34.86;97602.72;10417679;28;20068;-55
2022/09/09 09:59:27;;;;;;;12.65;5.15;;;;;;;30.25;34.82;97609.03;10418906;28;20558;-55
2022/09/09 10:04:26;;;;;;;8.75;4.70;;;;;;;30.57;34.81;97599.31;10419028;28;20492;-55
2022/09/09 10:09:28;;;;;;;6.97;5.30;;;;;;;30.73;33.21;97597.00;10418744;28;20575;-55
2022/09/09 10:14:49;;;;;;;7.93;5.10;;;;;;;31.01;34.39;97608.03;10418409;28;20076;-55
2022/09/09 10:19:59;;;;;;;6.40;5.40;;;;;;;31.08;33.28;97595.81;10417762;28;20072;-55
2022/09/09 10:25:25;;;;;;;9.02;5.53;;;;;;;31.41;33.72;97597.34;10417517;28;20068;-55
2022/09/09 10:30:32;;;;;;;9.60;5.30;;;;;;;31.44;33.69;97597.06;10418000;28;20059;-55
2022/09/09 10:35:34;;;;;;;8.20;5.03;;;;;;;31.06;33.92;97598.63;10417476;28;20534;-55
2022/09/09 10:40:51;;;;;;;7.97;5.38;;;;;;;30.48;34.09;97615.16;10401877;28;20076;-55
2022/09/09 10:46:05;;;;;;;13.82;5.30;;;;;;;30.03;34.98;97612.66;10413872;28;20519;-56
2022/09/09 10:51:16;;;;;;;8.45;5.25;;;;;;;29.71;36.10;97617.94;10416492;28;20495;-55
2022/09/09 10:56:18;;;;;;;8.18;5.18;;;;;;;29.46;35.98;97625.28;10417176;28;20462;-55
2022/09/09 11:01:33;;;;;;;11.10;5.38;;;;;;;29.29;35.82;97629.28;10416402;28;20068;-55
2022/09/09 11:06:39;;;;;;;9.48;5.60;;;;;;;29.03;35.53;97617.97;10415471;28;20074;-55
2022/09/09 11:12:18;;;;;;;7.45;5.35;;;;;;;29.15;36.00;97621.47;10416647;28;20056;-55
2022/09/09 11:17:33;;;;;;;9.07;5.97;;;;;;;29.21;37.60;97631.69;10375930;28;20080;-55
2022/09/09 11:22:42;;;;;;;11.48;5.13;;;;;;;29.20;36.54;97618.44;10415115;28;20071;-55
2022/09/09 11:28:14;;;;;;;12.85;6.07;;;;;;;29.05;37.61;97621.38;10416070;28;20060;-56
2022/09/09 11:33:40;;;;;;;10.48;6.40;;;;;;;29.16;37.55;97611.66;10415399;28;20076;-55
2022/09/09 11:38:48;;;;;;;9.07;6.22;;;;;;;29.19;38.70;97606.06;10396798;28;20490;-55
2022/09/09 11:43:52;;;;;;;10.50;6.25;;;;;;;29.24;38.69;97598.53;10415743;28;20067;-55
2022/09/09 11:49:02;;;;;;;8.13;5.53;;;;;;;29.39;37.89;97601.81;10414221;28;20079;-55
2022/09/09 11:54:23;;;;;;;9.77;6.25;;;;;;;29.46;38.61;97603.03;10414535;28;20076;-55
2022/09/09 11:59:26;;;;;;;9.60;5.85;;;;;;;29.36;38.82;97597.56;10375466;28;20060;-55
2022/09/09 12:04:39;;;;;;;11.50;6.32;;;;;;;29.55;39.54;97596.09;10412462;28;20135;-55
2022/09/09 12:10:00;;;;;;;7.32;5.47;;;;;;;29.53;38.39;97580.16;10414086;28;20080;-55
2022/09/09 12:15:03;;;;;;;9.43;5.25;;;;;;;29.43;38.76;97557.84;10414740;28;20071;-55
2022/09/09 12:20:19;;;;;;;9.52;6.22;;;;;;;29.36;39.79;97570.84;10413379;28;20080;-55
2022/09/09 12:25:26;;;;;;;8.15;5.55;;;;;;;29.11;39.30;97571.94;10414616;28;20482;-55
2022/09/09 12:30:33;;;;;;;11.73;6.22;;;;;;;29.16;38.96;97574.25;10414213;28;20064;-56
2022/09/09 12:35:32;;;;;;;10.38;5.80;;;;;;;29.26;38.95;97576.09;10413741;28;20511;-56
2022/09/09 12:40:35;;;;;;;16.45;9.02;;;;;;;29.50;39.94;97567.06;10413815;28;20076;-56
2022/09/09 12:45:35;;;;;;;12.48;7.30;;;;;;;29.60;39.03;97535.94;10413833;28;20068;-56
2022/09/09 12:50:38;;;;;;;8.32;5.57;;;;;;;29.98;38.86;97536.44;10412245;28;20076;-56
2022/09/09 12:55:39;;;;;;;12.05;6.05;;;;;;;30.28;38.71;97527.63;10413572;28;20087;-56
2022/09/09 13:00:51;;;;;;;8.48;6.15;;;;;;;30.29;37.69;97519.47;10413070;28;20600;-56
2022/09/09 13:05:53;;;;;;;11.20;6.68;;;;;;;30.24;37.88;97507.47;10413039;28;20068;-57
2022/09/09 13:10:59;;;;;;;7.45;5.75;;;;;;;30.15;38.60;97509.09;10413205;28;20060;-56
2022/09/09 13:16:04;;;;;;;11.35;6.35;;;;;;;30.08;38.77;97494.53;10413256;28;20549;-56
2022/09/09 13:21:03;;;;;;;12.20;6.30;;;;;;;30.05;37.96;97492.13;10413042;28;20076;-56
2022/09/09 13:26:06;;;;;;;15.93;6.38;;;;;;;29.78;38.25;97496.09;10413177;28;20078;-57
2022/09/09 13:31:19;;;;;;;12.00;6.25;;;;;;;29.50;38.61;97498.38;10418067;28;20872;-57
2022/09/09 13:36:29;;;;;;;14.73;6.95;;;;;;;29.24;39.59;97499.66;10419634;28;20076;-56
2022/09/09 13:41:44;;;;;;;12.32;6.45;;;;;;;29.15;39.66;97508.41;10420326;28;20480;-55
2022/09/09 13:46:43;;;;;;;11.00;6.43;;;;;;;29.32;39.97;97499.06;10419481;28;20076;-55
2022/09/09 13:51:46;;;;;;;13.20;6.38;;;;;;;29.42;39.71;97506.22;10419033;28;20075;-55
2022/09/09 13:56:46;;;;;;;10.30;6.63;;;;;;;29.43;39.57;97491.84;10418790;28;20498;-55
2022/09/09 14:01:45;;;;;;;13.20;6.93;;;;;;;29.47;39.83;97493.31;10419224;28;20074;-56
2022/09/09 14:06:44;;;;;;;12.57;6.68;;;;;;;29.55;39.40;97489.16;10419322;28;20067;-57
2022/09/09 14:11:45;;;;;;;13.98;8.00;;;;;;;29.57;39.69;97482.69;10417417;28;20036;-56
2022/09/09 14:16:45;;;;;;;12.95;7.05;;;;;;;29.50;39.42;97482.34;10415652;28;20072;-55
2022/09/09 14:21:44;;;;;;;12.82;7.63;;;;;;;29.39;39.67;97479.72;10416961;28;20496;-55
2022/09/09 14:26:43;;;;;;;11.77;7.65;;;;;;;29.19;39.83;97477.81;10417771;28;20506;-55
2022/09/09 14:31:42;;;;;;;15.38;8.13;;;;;;;28.99;39.51;97487.41;10416372;28;20116;-57
2022/09/09 14:36:41;;;;;;;12.57;7.70;;;;;;;28.94;40.30;97482.44;10417144;28;20068;-56
2022/09/09 14:41:40;;;;;;;10.57;7.13;;;;;;;29.07;40.41;97480.50;10389164;28;20071;-55
2022/09/09 14:46:39;;;;;;;11.50;7.05;;;;;;;29.11;40.79;97480.22;10416766;28;20107;-56
2022/09/09 14:51:38;;;;;;;8.70;6.65;;;;;;;29.05;41.04;97471.75;10416013;28;20110;-56
2022/09/09 14:56:37;;;;;;;9.18;6.10;;;;;;;29.02;41.51;97473.84;10415902;28;20106;-56
2022/09/09 15:01:37;;;;;;;9.63;6.30;;;;;;;28.74;41.36;97477.88;10416555;28;20068;-56
2022/09/09 15:06:38;;;;;;;11.52;6.47;;;;;;;28.60;41.46;97481.59;10415126;28;20068;-56
2022/09/09 15:11:38;;;;;;;9.38;6.43;;;;;;;28.58;41.93;97491.53;10413528;28;20079;-56
2022/09/09 15:16:38;;;;;;;9.35;6.80;;;;;;;28.49;42.57;97492.25;10415240;28;20071;-56
2022/09/09 15:21:38;;;;;;;10.98;6.75;;;;;;;28.39;42.66;97484.97;10413874;28;20056;-56
2022/09/09 15:26:38;;;;;;;8.93;5.90;;;;;;;28.33;42.91;97489.94;10415368;28;20495;-56
2022/09/09 15:31:37;;;;;;;10.18;6.03;;;;;;;28.17;43.39;97485.81;10414044;28;20091;-56
2022/09/09 15:36:38;;;;;;;11.38;6.65;;;;;;;28.02;43.84;97486.94;10416129;28;20047;-56
2022/09/09 15:41:37;;;;;;;12.23;6.40;;;;;;;27.91;43.36;97479.72;10411295;28;20378;-56
2022/09/09 15:46:38;;;;;;;12.20;6.57;;;;;;;27.77;43.89;97479.94;10410631;28;20040;-56
2022/09/09 15:51:40;;;;;;;12.88;6.60;;;;;;;27.66;44.36;97469.22;10410297;28;20079;-56
2022/09/09 15:56:39;;;;;;;8.10;6.40;;;;;;;27.64;43.98;97482.69;10411732;28;20064;-56
2022/09/09 16:01:40;;;;;;;14.40;6.60;;;;;;;27.62;44.02;97484.63;10412836;28;20102;-56
2022/09/09 16:06:39;;;;;;;8.18;6.57;;;;;;;27.50;44.62;97481.03;10413050;28;20072;-56
2022/09/09 16:11:38;;;;;;;9.98;6.97;;;;;;;27.36;44.49;97479.38;10413072;28;20032;-56
2022/09/09 16:16:38;;;;;;;18.10;7.30;;;;;;;27.22;45.00;97487.53;10410734;28;20118;-56
2022/09/09 16:21:40;;;;;;;7.45;6.32;;;;;;;26.94;45.24;97478.03;10412785;28;20068;-56
2022/09/09 16:26:44;;;;;;;9.27;6.13;;;;;;;26.50;45.68;97471.34;10413879;28;20072;-56
2022/09/09 16:31:45;;;;;;;13.38;6.30;;;;;;;26.21;46.21;97481.38;10413116;28;20106;-56
2022/09/09 16:36:44;;;;;;;10.88;6.25;;;;;;;25.93;46.67;97460.13;10413274;28;20079;-56
2022/09/09 16:41:45;;;;;;;9.93;6.45;;;;;;;25.66;46.85;97462.00;10413952;28;20060;-56
2022/09/09 16:46:44;;;;;;;12.20;7.43;;;;;;;25.44;47.53;97471.38;10413219;28;20068;-56
2022/09/09 16:51:46;;;;;;;14.35;6.63;;;;;;;25.16;47.79;97482.94;10412910;28;20087;-56
2022/09/09 16:56:47;;;;;;;8.38;6.63;;;;;;;24.96;48.33;97472.75;10413963;28;20452;-56
2022/09/09 17:01:49;;;;;;;11.15;6.40;;;;;;;24.78;48.75;97469.41;10413181;28;20064;-56
2022/09/09 17:06:49;;;;;;;9.98;7.22;;;;;;;24.63;49.05;97471.25;10419066;28;20522;-57
2022/09/09 17:11:51;;;;;;;10.88;6.50;;;;;;;24.48;49.56;97473.06;10419863;28;20079;-57
2022/09/09 17:16:50;;;;;;;11.07;7.10;;;;;;;24.39;49.54;97484.22;10418654;28;20598;-56
2022/09/09 17:21:49;;;;;;;10.15;6.55;;;;;;;24.28;50.00;97487.53;10419723;28;20059;-57
2022/09/09 17:26:48;;;;;;;10.25;6.53;;;;;;;24.19;49.90;97499.56;10419016;28;20037;-57
2022/09/09 17:31:47;;;;;;;11.75;7.38;;;;;;;24.09;50.25;97505.47;10418931;28;20044;-57
2022/09/09 17:36:46;;;;;;;13.63;7.60;;;;;;;23.99;50.52;97508.66;10415976;28;20044;-56
2022/09/09 17:41:45;;;;;;;10.15;6.68;;;;;;;23.89;51.17;97512.81;10418211;28;20083;-55
2022/09/09 17:46:45;;;;;;;15.77;9.35;;;;;;;23.85;51.41;97521.88;10419312;28;20064;-55
2022/09/09 17:51:45;;;;;;;31.73;15.88;;;;;;;23.76;51.74;97527.72;10419308;28;20084;-55
2022/09/09 17:56:45;;;;;;;31.40;16.40;;;;;;;23.59;52.40;97537.47;10418746;28;20474;-55
2022/09/09 18:01:47;;;;;;;31.27;15.75;;;;;;;23.47;52.74;97540.84;10400412;28;20169;-55
2022/09/09 18:06:51;;;;;;;18.33;8.95;;;;;;;23.40;53.75;97547.38;10415148;28;20519;-56
2022/09/09 18:11:53;;;;;;;12.88;8.40;;;;;;;23.14;55.90;97551.47;10418228;28;20063;-56
2022/09/09 18:16:52;;;;;;;11.05;8.98;;;;;;;22.98;56.25;97552.31;10417406;28;20527;-56
2022/09/09 18:21:52;;;;;;;13.43;9.23;;;;;;;22.79;57.96;97552.47;10417381;28;20478;-56
2022/09/09 18:26:51;;;;;;;12.30;8.98;;;;;;;22.56;58.26;97540.41;10417849;28;20483;-56
2022/09/09 18:31:52;;;;;;;17.83;10.18;;;;;;;22.59;58.94;97556.13;10417870;28;20060;-56
2022/09/09 18:36:53;;;;;;;12.32;9.25;;;;;;;22.56;59.01;97564.22;10397082;28;20133;-57
2022/09/09 18:41:54;;;;;;;13.60;8.80;;;;;;;22.56;59.41;97571.31;10416364;28;20097;-55
2022/09/09 18:46:54;;;;;;;12.20;8.63;;;;;;;22.46;60.40;97573.59;10417280;28;20064;-55
2022/09/09 18:51:53;;;;;;;18.02;9.75;;;;;;;22.46;60.62;97575.34;10415730;28;20084;-55
2022/09/09 18:56:52;;;;;;;14.77;9.43;;;;;;;22.48;60.53;97576.13;10416592;28;20063;-56
2022/09/09 19:01:52;;;;;;;13.52;9.65;;;;;;;22.54;59.97;97578.47;10417020;28;20115;-56
2022/09/09 19:06:57;;;;;;;12.95;9.63;;;;;;;22.54;61.19;97575.81;10415933;28;20060;-56
2022/09/09 19:11:58;;;;;;;16.58;10.05;;;;;;;22.37;61.70;97566.97;10416280;28;20075;-56
2022/09/09 19:16:58;;;;;;;14.68;8.93;;;;;;;22.38;62.31;97562.53;10415641;28;20083;-56
2022/09/09 19:21:58;;;;;;;14.32;9.25;;;;;;;22.37;62.26;97556.41;10416114;28;20075;-56
2022/09/09 19:27:01;;;;;;;16.05;10.38;;;;;;;22.34;62.89;97543.34;10414130;28;20079;-56
2022/09/09 19:32:01;;;;;;;20.92;10.85;;;;;;;22.31;63.04;97529.41;10414785;28;20526;-56
2022/09/09 19:37:00;;;;;;;14.43;10.65;;;;;;;22.27;63.64;97535.78;10413936;28;20091;-56
2022/09/09 19:41:59;;;;;;;14.45;10.35;;;;;;;22.23;63.70;97531.63;10415448;28;20111;-56
2022/09/09 19:46:59;;;;;;;13.60;10.93;;;;;;;22.16;63.78;97502.84;10415399;28;20063;-56
2022/09/09 19:51:58;;;;;;;16.08;10.98;;;;;;;22.19;64.73;97515.06;10414102;28;20527;-55
2022/09/09 19:56:59;;;;;;;18.23;12.32;;;;;;;22.02;66.05;97502.72;10412330;28;20087;-56
2022/09/09 20:01:58;;;;;;;17.75;11.90;;;;;;;22.00;65.91;97507.22;10414405;28;20083;-55
2022/09/09 20:06:57;;;;;;;21.50;11.75;;;;;;;22.05;65.76;97514.91;10414591;28;20042;-57
2022/09/09 20:11:56;;;;;;;18.00;12.15;;;;;;;21.97;67.24;97502.91;10414419;28;20028;-57
2022/09/09 20:16:55;;;;;;;20.13;12.35;;;;;;;21.86;67.54;97493.84;10413334;28;20529;-55
2022/09/09 20:21:54;;;;;;;16.60;12.70;;;;;;;21.71;68.07;97487.50;10415029;28;20399;-55
2022/09/09 20:26:53;;;;;;;20.20;13.00;;;;;;;21.62;68.80;97493.28;10411281;28;20099;-55
2022/09/09 20:31:52;;;;;;;21.52;13.25;;;;;;;21.54;69.72;97498.94;10413654;28;20055;-55
2022/09/09 20:36:53;;;;;;;20.92;14.73;;;;;;;21.33;71.21;97504.31;10412837;28;20068;-56
2022/09/09 20:41:52;;;;;;;23.27;17.02;;;;;;;21.15;72.71;97505.19;10421564;28;20086;-55
2022/09/09 20:47:02;;;;;;;23.33;18.02;;;;;;;20.96;73.13;97509.59;10420768;28;20087;-57
2022/09/09 20:52:02;;;;;;;23.33;18.15;;;;;;;20.87;73.19;97513.56;10421458;28;20095;-56
2022/09/09 20:57:01;;;;;;;23.15;19.48;;;;;;;20.82;73.65;97507.59;10417869;28;20519;-56
2022/09/09 21:02:01;;;;;;;21.98;18.23;;;;;;;20.74;73.76;97501.84;10421813;28;20071;-57
2022/09/09 21:07:03;;;;;;;21.60;17.35;;;;;;;20.75;73.71;97517.59;10420264;28;20075;-57
2022/09/09 21:12:02;;;;;;;24.80;17.42;;;;;;;20.74;74.04;97515.88;10420841;28;20586;-55
2022/09/09 21:17:02;;;;;;;22.90;15.10;;;;;;;20.73;74.01;97513.31;10420064;28;20072;-56
2022/09/09 21:22:00;;;;;;;20.15;14.50;;;;;;;20.73;74.30;97518.56;10402987;28;20104;-57
2022/09/09 21:26:59;;;;;;;23.55;14.35;;;;;;;20.66;74.44;97513.59;10418030;28;20384;-56
2022/09/09 21:32:00;;;;;;;20.77;14.10;;;;;;;20.67;74.51;97510.03;10420707;28;20147;-57
2022/09/09 21:36:59;;;;;;;17.05;13.55;;;;;;;20.60;75.18;97518.28;10419157;28;20084;-57
2022/09/09 21:41:57;;;;;;;18.10;11.88;;;;;;;20.46;75.18;97511.00;10419645;28;20045;-57
2022/09/09 21:46:56;;;;;;;17.77;12.40;;;;;;;20.40;75.55;97516.53;10419769;28;20468;-57
2022/09/09 21:51:57;;;;;;;19.85;13.85;;;;;;;20.36;75.74;97514.94;10419312;28;20159;-56
2022/09/09 21:56:56;;;;;;;23.70;15.68;;;;;;;20.09;78.05;97509.94;10418161;28;20091;-55
2022/09/09 22:01:55;;;;;;;25.10;17.85;;;;;;;19.82;80.64;97497.06;10417044;28;20056;-55
2022/09/09 22:06:54;;;;;;;20.33;17.00;;;;;;;19.68;80.48;97486.25;10418644;28;20095;-56
2022/09/09 22:11:53;;;;;;;20.75;17.33;;;;;;;19.57;81.08;97493.72;10418962;28;20040;-56
2022/09/09 22:16:53;;;;;;;20.67;16.88;;;;;;;19.46;81.99;97494.13;10416767;28;20024;-56
2022/09/09 22:21:52;;;;;;;23.13;16.98;;;;;;;19.48;81.31;97494.06;10415050;28;20071;-56
2022/09/09 22:26:52;;;;;;;22.48;16.65;;;;;;;19.51;81.06;97488.69;10418744;28;20518;-56
2022/09/09 22:31:52;;;;;;;21.40;16.58;;;;;;;19.45;82.11;97490.66;10414502;28;20488;-56
2022/09/09 22:36:51;;;;;;;23.17;16.73;;;;;;;19.39;82.39;97488.28;10417045;28;20072;-56
2022/09/09 22:41:49;;;;;;;24.50;16.45;;;;;;;19.33;82.73;97485.03;10418144;28;20487;-56
2022/09/09 22:46:49;;;;;;;18.65;16.55;;;;;;;19.33;83.14;97480.63;10416969;28;20138;-56
2022/09/09 22:51:49;;;;;;;22.95;16.38;;;;;;;19.22;83.98;97480.19;10416824;28;20094;-56
2022/09/09 22:56:50;;;;;;;26.15;19.80;;;;;;;18.95;85.33;97472.50;10416045;28;20083;-56
2022/09/09 23:01:50;;;;;;;22.50;18.55;;;;;;;18.87;85.44;97471.94;10413254;28;20056;-56
2022/09/09 23:06:49;;;;;;;21.23;18.02;;;;;;;18.84;85.29;97471.22;10417177;28;20076;-56
2022/09/09 23:11:48;;;;;;;23.10;19.00;;;;;;;18.88;85.02;97465.78;10415761;28;20127;-56
2022/09/09 23:16:47;;;;;;;27.30;17.90;;;;;;;18.90;84.48;97473.56;10416052;28;20052;-56